Time;durP1;ratioP1;P1;durP2;ratioP2;P2;SDS_P1;SDS_P2;PMS_P1;PMS_P2;Temp;Humidity;BMP_temperature;BMP_pressure;BME280_temperature;BME280_humidity;BME280_pressure;Samples;Min_cycle;Max_cycle;Signal;HPM_P1;HPM_P2
2021/08/22 00:01:40;;;;;;;;;;;20.30;99.40;;;19.19;100.00;100363.97;5022374;28;19929;-66
2021/08/22 00:04:07;;;;;;;;;;;20.30;99.30;;;19.20;100.00;100351.84;5023148;28;19979;-66
2021/08/22 00:06:35;;;;;;;;;;;20.30;99.40;;;19.20;100.00;100360.13;5018353;28;19930;-66
2021/08/22 00:09:02;;;;;;;;;;;20.30;99.60;;;19.19;100.00;100366.72;5021419;28;20044;-66
2021/08/22 00:11:30;;;;;;;;;;;20.20;99.50;;;19.18;100.00;100362.28;5021908;28;19988;-66
2021/08/22 00:13:57;;;;;;;;;;;20.20;99.50;;;19.14;100.00;100359.19;5020459;28;20492;-66
2021/08/22 00:16:24;;;;;;;;;;;20.20;99.40;;;19.13;100.00;100355.59;5020226;28;19973;-66
2021/08/22 00:18:51;;;;;;;;;;;20.20;99.40;;;19.14;100.00;100351.75;5020346;28;19933;-67
2021/08/22 00:21:18;;;;;;;;;;;20.20;99.40;;;19.14;100.00;100348.16;5020484;28;20355;-66
2021/08/22 00:23:47;;;;;;;;;;;20.20;99.50;;;19.12;100.00;100342.88;5021690;28;19933;-66
2021/08/22 00:26:14;;;;;;;;;;;20.20;99.50;;;19.10;100.00;100331.25;5020461;28;20020;-66
2021/08/22 00:28:41;;;;;;;;;;;20.10;99.40;;;19.09;100.00;100323.22;5020682;28;20368;-66
2021/08/22 00:31:08;;;;;;;;;;;20.10;99.60;;;19.09;100.00;100315.75;5020745;28;20390;-67
2021/08/22 00:33:35;;;;;;;;;;;20.10;99.60;;;19.10;100.00;100314.69;5018004;28;19929;-67
2021/08/22 00:36:02;;;;;;;;;;;20.10;99.70;;;19.10;100.00;100314.69;5018320;28;19961;-67
2021/08/22 00:38:31;;;;;;;;;;;20.00;99.70;;;19.09;100.00;100329.56;5011352;28;19929;-66
2021/08/22 00:41:02;;;;;;;;;;;20.00;99.70;;;19.06;100.00;100332.81;5019976;28;20020;-66
2021/08/22 00:43:30;;;;;;;;;;;20.00;99.90;;;19.02;100.00;100339.06;5019119;28;20478;-66
2021/08/22 00:45:58;;;;;;;;;;;20.00;99.90;;;19.00;100.00;100339.34;5020232;28;19925;-67
2021/08/22 00:48:27;;;;;;;;;;;20.00;99.90;;;19.02;100.00;100341.81;5020107;28;19929;-66
2021/08/22 00:50:54;;;;;;;;;;;19.90;99.90;;;19.01;100.00;100343.75;5020170;28;20308;-66
2021/08/22 00:53:21;;;;;;;;;;;19.90;99.90;;;18.99;100.00;100347.84;5019975;28;19956;-67
2021/08/22 00:55:50;;;;;;;;;;;19.90;99.90;;;18.97;100.00;100336.22;5020749;28;19945;-66
2021/08/22 00:58:18;;;;;;;;;;;19.90;99.90;;;18.94;100.00;100345.81;5020084;28;19925;-66
2021/08/22 01:00:48;;;;;;;;;;;19.80;99.90;;;18.93;100.00;100349.66;5019656;28;19929;-66
2021/08/22 01:03:18;;;;;;;;;;;19.80;99.80;;;18.91;100.00;100346.31;5008605;28;20377;-66
2021/08/22 01:05:50;;;;;;;;;;;19.80;99.80;;;18.89;100.00;100348.47;5021135;28;20024;-66
2021/08/22 01:08:24;;;;;;;;;;;19.70;99.90;;;18.88;100.00;100347.63;5019125;28;19925;-66
2021/08/22 01:10:54;;;;;;;;;;;19.70;99.90;;;18.85;100.00;100341.75;5018760;28;19977;-66
2021/08/22 01:13:24;;;;;;;;;;;19.70;99.90;;;18.84;100.00;100340.09;5017900;28;20463;-67
2021/08/22 01:15:55;;;;;;;;;;;19.60;99.80;;;18.81;100.00;100348.84;5017553;28;19932;-66
2021/08/22 01:18:24;;;;;;;;;;;19.60;99.80;;;18.79;100.00;100349.06;5019177;28;19971;-66
2021/08/22 01:21:11;;;;;;;;;;;19.60;99.80;;;18.79;100.00;100350.97;5019985;28;19932;-66
2021/08/22 01:23:43;;;;;;;;;;;19.60;99.90;;;18.75;100.00;100348.72;5017973;28;19940;-66
2021/08/22 01:26:10;;;;;;;;;;;19.50;99.90;;;18.74;100.00;100352.53;5018117;28;19964;-67
2021/08/22 01:28:40;;;;;;;;;;;19.50;99.90;;;18.73;99.95;100352.78;5017954;28;20289;-66
2021/08/22 01:31:11;;;;;;;;;;;19.50;99.80;;;18.67;99.92;100357.34;5017946;28;19979;-66
2021/08/22 01:33:41;;;;;;;;;;;19.40;99.70;;;18.63;99.74;100356.16;5019555;28;19932;-66
2021/08/22 01:36:09;;;;;;;;;;;19.40;99.70;;;18.65;99.59;100355.91;5019985;28;19964;-67
2021/08/22 01:38:36;;;;;;;;;;;19.30;99.70;;;18.63;99.40;100355.31;5019079;28;20376;-66
2021/08/22 01:41:03;;;;;;;;;;;19.30;99.70;;;18.64;99.52;100363.34;5019156;28;19980;-67
2021/08/22 01:43:32;;;;;;;;;;;19.30;99.70;;;18.64;99.10;100368.00;5020301;28;19987;-66
2021/08/22 01:46:00;;;;;;;;;;;19.20;99.60;;;18.61;98.62;100371.28;5018157;28;19936;-66
2021/08/22 01:48:28;;;;;;;;;;;19.20;99.60;;;18.58;98.90;100369.81;5018436;28;19925;-66
2021/08/22 01:50:58;;;;;;;;;;;19.20;99.80;;;18.57;98.66;100368.16;5019235;28;19936;-66
2021/08/22 01:53:26;;;;;;;;;;;19.20;99.80;;;18.55;98.88;100364.81;5017091;28;19929;-66
2021/08/22 01:55:54;;;;;;;;;;;19.20;99.90;;;18.52;98.65;100370.78;5019822;28;19925;-66
2021/08/22 01:58:21;;;;;;;;;;;19.10;99.90;;;18.47;99.24;100362.41;5019828;28;19929;-66
2021/08/22 02:00:49;;;;;;;;;;;19.10;99.90;;;18.43;99.38;100372.22;5000467;28;19926;-66
2021/08/22 02:03:19;;;;;;;;;;;19.20;99.90;;;18.43;99.45;100366.72;5020869;28;19979;-66
2021/08/22 02:05:49;;;;;;;;;;;19.10;99.90;;;18.42;99.50;100367.81;5018922;28;20511;-66
2021/08/22 02:08:20;;;;;;;;;;;19.10;99.90;;;18.44;99.37;100368.41;5018482;28;19926;-66
2021/08/22 02:10:51;;;;;;;;;;;19.10;99.90;;;18.43;99.42;100366.72;5018250;28;19929;-66
2021/08/22 02:13:20;;;;;;;;;;;19.10;99.90;;;18.42;99.24;100359.53;5017713;28;20467;-67
2021/08/22 02:15:47;;;;;;;;;;;19.10;99.90;;;18.40;99.41;100368.03;5019382;28;19928;-66
2021/08/22 02:18:16;;;;;;;;;;;19.10;99.90;;;18.34;99.82;100358.81;5017939;28;20042;-66
2021/08/22 02:20:45;;;;;;;;;;;19.10;99.90;;;18.36;99.63;100358.59;5019280;28;19929;-66
2021/08/22 02:23:12;;;;;;;;;;;19.00;99.90;;;18.35;99.55;100360.50;5018069;28;19936;-66
2021/08/22 02:25:43;;;;;;;;;;;19.00;99.90;;;18.35;99.44;100362.41;5017700;28;20561;-66
2021/08/22 02:28:10;;;;;;;;;;;19.00;99.90;;;18.34;99.65;100358.81;5015304;28;19965;-66
2021/08/22 02:30:39;;;;;;;;;;;19.00;99.90;;;18.36;99.32;100361.34;5017749;28;19929;-67
2021/08/22 02:33:08;;;;;;;;;;;19.00;99.90;;;18.36;99.93;100353.06;5001821;28;20036;-66
2021/08/22 02:35:36;;;;;;;;;;;19.00;99.90;;;18.35;99.96;100360.50;5018206;28;19930;-66
2021/08/22 02:38:03;;;;;;;;;;;19.10;99.90;;;18.35;99.83;100360.50;5018322;28;19933;-66
2021/08/22 02:40:30;;;;;;;;;;;19.10;99.90;;;18.36;99.95;100353.91;5016700;28;20016;-66
2021/08/22 02:42:59;;;;;;;;;;;19.10;99.90;;;18.36;100.00;100353.06;5018207;28;20389;-66
2021/08/22 02:45:26;;;;;;;;;;;19.10;99.90;;;18.36;100.00;100353.06;5017155;28;20016;-66
2021/08/22 02:47:57;;;;;;;;;;;19.10;99.90;;;18.33;100.00;100357.16;5018447;28;20380;-66
2021/08/22 02:50:25;;;;;;;;;;;19.10;99.90;;;18.33;100.00;100351.66;5019962;28;19972;-66
2021/08/22 02:52:52;;;;;;;;;;;19.10;99.90;;;18.34;100.00;100353.31;5016017;28;19936;-66
2021/08/22 02:55:19;;;;;;;;;;;19.10;99.90;;;18.35;100.00;100359.66;5017928;28;19925;-66
2021/08/22 02:57:47;;;;;;;;;;;19.10;99.90;;;18.34;100.00;100353.31;5016941;28;20012;-66
2021/08/22 03:00:16;;;;;;;;;;;19.10;99.90;;;18.34;100.00;100355.22;5019041;28;19925;-66
2021/08/22 03:02:43;;;;;;;;;;;19.10;99.90;;;18.33;100.00;100351.66;5018403;28;19929;-66
2021/08/22 03:05:11;;;;;;;;;;;19.20;99.90;;;18.31;100.00;100348.25;5017244;28;19940;-66
2021/08/22 03:07:38;;;;;;;;;;;19.20;99.90;;;18.31;100.00;100348.25;5018542;28;19976;-66
2021/08/22 03:10:06;;;;;;;;;;;19.20;99.90;;;18.31;100.00;100359.28;5007717;28;20065;-66
2021/08/22 03:12:33;;;;;;;;;;;19.20;99.90;;;18.32;100.00;100351.88;5017886;28;20468;-66
2021/08/22 03:15:00;;;;;;;;;;;19.20;99.90;;;18.33;100.00;100357.16;5007883;28;20351;-66
2021/08/22 03:17:29;;;;;;;;;;;19.20;99.90;;;18.32;100.00;100360.97;5006906;28;19929;-66
2021/08/22 03:19:56;;;;;;;;;;;19.20;99.90;;;18.28;100.00;100359.78;5007116;28;20460;-66
2021/08/22 03:22:24;;;;;;;;;;;19.30;99.90;;;18.27;100.00;100366.34;5006707;28;19929;-66
2021/08/22 03:24:51;;;;;;;;;;;19.30;99.90;;;18.29;100.00;100358.69;5006666;28;20128;-66
2021/08/22 03:27:18;;;;;;;;;;;19.30;99.90;;;18.29;100.00;100349.59;5019119;28;19976;-66
2021/08/22 03:29:45;;;;;;;;;;;19.30;99.90;;;18.28;100.00;100348.75;5003564;28;20612;-66
2021/08/22 03:32:12;;;;;;;;;;;19.30;99.90;;;18.28;100.00;100348.75;5012689;28;19959;-66
2021/08/22 03:34:41;;;;;;;;;;;19.30;99.90;;;18.29;100.00;100350.41;5009865;28;19925;-66
2021/08/22 03:37:09;;;;;;;;;;;19.30;99.90;;;18.32;100.00;100355.47;5014188;28;20400;-66
2021/08/22 03:39:36;;;;;;;;;;;19.30;99.90;;;18.32;100.00;100344.44;5021668;28;19929;-67
2021/08/22 03:42:04;;;;;;;;;;;19.30;99.90;;;18.32;100.00;100349.13;5020193;28;20029;-66
2021/08/22 03:44:31;;;;;;;;;;;19.30;99.90;;;18.34;100.00;100355.22;5016619;28;19999;-66
2021/08/22 03:46:58;;;;;;;;;;;19.30;99.90;;;18.35;100.00;100354.13;5017947;28;20404;-67
2021/08/22 03:49:26;;;;;;;;;;;19.40;99.90;;;18.36;100.00;100348.38;5012184;28;20443;-66
2021/08/22 03:51:54;;;;;;;;;;;19.40;99.90;;;18.34;100.00;100346.97;5015128;28;19929;-66
2021/08/22 03:54:21;;;;;;;;;;;19.40;99.90;;;18.34;100.00;100353.31;5016492;28;19929;-66
2021/08/22 03:56:48;;;;;;;;;;;19.40;99.90;;;18.31;100.00;100353.78;5015384;28;19933;-66
2021/08/22 03:59:15;;;;;;;;;;;19.40;99.90;;;18.33;100.00;100348.88;4999099;28;19937;-66
2021/08/22 04:01:43;;;;;;;;;;;19.40;99.90;;;18.32;100.00;100349.94;5015072;28;19925;-66
2021/08/22 04:04:22;;;;;;;;;;;19.40;99.90;;;18.34;100.00;100353.31;4999045;28;19929;-66
2021/08/22 04:06:50;;;;;;;;;;;19.40;99.90;;;18.35;100.00;100348.63;5017934;28;20442;-66
2021/08/22 04:09:20;;;;;;;;;;;19.40;99.90;;;18.38;100.00;100350.91;5015542;28;20376;-66
2021/08/22 04:11:51;;;;;;;;;;;19.40;99.90;;;18.38;100.00;100353.66;5015626;28;19929;-66
2021/08/22 04:14:19;;;;;;;;;;;19.40;99.90;;;18.39;100.00;100360.00;5017223;28;20659;-66
2021/08/22 04:16:47;;;;;;;;;;;19.40;99.90;;;18.39;100.00;100360.00;5015905;28;19929;-66
2021/08/22 04:19:14;;;;;;;;;;;19.40;99.90;;;18.39;100.00;100351.75;5016923;28;20102;-66
2021/08/22 04:21:42;;;;;;;;;;;19.40;99.90;;;18.41;100.00;100363.34;5018864;28;19940;-66
2021/08/22 04:24:09;;;;;;;;;;;19.40;99.90;;;18.38;100.00;100358.34;5017156;28;19937;-66
2021/08/22 04:26:39;;;;;;;;;;;19.40;99.90;;;18.34;100.00;100358.81;5019871;28;19936;-66
2021/08/22 04:29:06;;;;;;;;;;;19.40;99.90;;;18.35;100.00;100355.00;5020796;28;19996;-66
2021/08/22 04:31:33;;;;;;;;;;;19.40;99.90;;;18.34;100.00;100366.25;5021107;28;19925;-67
2021/08/22 04:34:00;;;;;;;;;;;19.40;99.90;;;18.35;100.00;100354.13;5019808;28;19961;-66
2021/08/22 04:36:27;;;;;;;;;;;19.40;99.90;;;18.35;100.00;100366.03;5019149;28;19929;-66
2021/08/22 04:39:01;;;;;;;;;;;19.40;99.90;;;18.35;100.00;100365.16;5018140;28;20112;-66
2021/08/22 04:41:31;;;;;;;;;;;19.40;99.90;;;18.35;100.00;100365.16;5000571;28;19929;-66
2021/08/22 04:44:00;;;;;;;;;;;19.40;99.90;;;18.35;100.00;100365.16;5021155;28;19987;-66
2021/08/22 04:46:27;;;;;;;;;;;19.40;99.90;;;18.33;100.00;100375.59;5018320;28;20420;-66
2021/08/22 04:48:54;;;;;;;;;;;19.40;99.90;;;18.35;100.00;100368.78;5019871;28;19980;-66
2021/08/22 04:51:21;;;;;;;;;;;19.40;99.90;;;18.37;100.00;100374.03;5020403;28;19937;-66
2021/08/22 04:53:48;;;;;;;;;;;19.40;99.90;;;18.38;100.00;100374.88;5019513;28;19980;-67
2021/08/22 04:56:15;;;;;;;;;;;19.40;99.90;;;18.38;100.00;100375.72;5018027;28;19925;-66
2021/08/22 04:58:42;;;;;;;;;;;19.50;99.90;;;18.36;100.00;100384.22;5019034;28;20020;-66
2021/08/22 05:01:11;;;;;;;;;;;19.40;99.90;;;18.38;100.00;100377.63;5021747;28;20355;-66
2021/08/22 05:03:38;;;;;;;;;;;19.40;99.90;;;18.40;100.00;100378.22;5021743;28;19976;-66
2021/08/22 05:06:05;;;;;;;;;;;19.50;99.90;;;18.38;100.00;100375.72;5014378;28;19930;-66
2021/08/22 05:08:32;;;;;;;;;;;19.50;99.90;;;18.39;100.00;100387.56;5011109;28;19929;-66
2021/08/22 05:10:59;;;;;;;;;;;19.50;99.90;;;18.38;100.00;100386.72;5017233;28;20052;-66
2021/08/22 05:13:26;;;;;;;;;;;19.50;99.90;;;18.36;100.00;100388.88;5010999;28;19929;-66
2021/08/22 05:15:54;;;;;;;;;;;19.50;99.90;;;18.35;100.00;100389.94;5024601;28;19931;-66
2021/08/22 05:18:23;;;;;;;;;;;19.40;99.90;;;18.38;100.00;100391.41;5027802;28;20769;-66
2021/08/22 05:20:51;;;;;;;;;;;19.50;99.90;;;18.38;100.00;100388.66;5019146;28;19980;-66
2021/08/22 05:23:19;;;;;;;;;;;19.50;99.90;;;18.40;100.00;100378.22;5015461;28;19929;-66
2021/08/22 05:25:46;;;;;;;;;;;19.50;99.90;;;18.40;100.00;100378.22;5021346;28;20008;-66
2021/08/22 05:28:13;;;;;;;;;;;19.50;99.90;;;18.39;100.00;100376.53;5021236;28;19983;-66
2021/08/22 05:30:40;;;;;;;;;;;19.50;99.90;;;18.39;100.00;100388.41;5018602;28;20455;-66
2021/08/22 05:33:08;;;;;;;;;;;19.50;99.90;;;18.39;100.00;100388.41;5016888;28;19945;-66
2021/08/22 05:35:38;;;;;;;;;;;19.50;99.90;;;18.40;100.00;100398.34;5022636;28;19933;-66
2021/08/22 05:38:06;;;;;;;;;;;19.50;99.90;;;18.40;100.00;100390.09;5015739;28;19976;-66
2021/08/22 05:40:33;;;;;;;;;;;19.50;99.90;;;18.40;100.00;100394.75;5019544;28;20305;-66
2021/08/22 05:43:00;;;;;;;;;;;19.60;99.90;;;18.42;100.00;100403.63;4999924;28;20300;-66
2021/08/22 05:45:28;;;;;;;;;;;19.50;99.90;;;18.43;100.00;100400.63;5019136;28;20019;-71
2021/08/22 05:47:55;;;;;;;;;;;19.60;99.90;;;18.43;100.00;100395.13;5019681;28;19933;-70
2021/08/22 05:50:22;;;;;;;;;;;19.60;99.90;;;18.43;100.00;100397.03;5019095;28;20039;-69
2021/08/22 05:52:50;;;;;;;;;;;19.60;99.90;;;18.44;100.00;100404.22;5019343;28;19930;-68
2021/08/22 05:55:17;;;;;;;;;;;19.60;99.90;;;18.44;100.00;100401.47;5034080;22;20458;-69
2021/08/22 05:57:44;;;;;;;;;;;19.60;99.90;;;18.42;100.00;100403.63;5018794;28;19925;-69
2021/08/22 06:00:12;;;;;;;;;;;19.60;99.90;;;18.42;100.00;100404.47;5018443;28;19929;-69
2021/08/22 06:02:39;;;;;;;;;;;19.60;99.90;;;18.44;100.00;100401.47;5019060;28;20384;-69
2021/08/22 06:05:07;;;;;;;;;;;19.60;99.90;;;18.43;100.00;100405.28;5013138;28;19939;-69
2021/08/22 06:07:34;;;;;;;;;;;19.60;99.90;;;18.41;100.00;100410.19;5008378;28;19973;-69
2021/08/22 06:10:06;;;;;;;;;;;19.60;99.90;;;18.43;100.00;100405.28;5008755;28;19971;-69
2021/08/22 06:12:33;;;;;;;;;;;19.60;99.90;;;18.40;100.00;100405.78;5007753;28;19925;-68
2021/08/22 06:15:01;;;;;;;;;;;19.60;99.90;;;18.42;100.00;100403.63;5008109;28;20019;-69
2021/08/22 06:17:28;;;;;;;;;;;19.60;99.90;;;18.44;100.00;100412.50;5007204;28;20016;-69
2021/08/22 06:19:55;;;;;;;;;;;19.60;99.90;;;18.43;100.00;100414.41;5006616;28;20719;-69
2021/08/22 06:22:22;;;;;;;;;;;19.70;99.90;;;18.42;100.00;100420.16;5007855;28;19929;-69
2021/08/22 06:24:50;;;;;;;;;;;19.70;99.90;;;18.43;100.00;100416.31;5007643;28;19967;-69
2021/08/22 06:27:18;;;;;;;;;;;19.80;99.90;;;18.43;100.00;100417.16;5007161;28;20350;-69
2021/08/22 06:29:46;;;;;;;;;;;19.80;99.90;;;18.46;100.00;100424.94;5007130;28;19929;-68
2021/08/22 06:32:13;;;;;;;;;;;19.80;99.90;;;18.47;100.00;100423.06;5007565;28;19977;-68
2021/08/22 06:34:40;;;;;;;;;;;19.80;99.90;;;18.52;100.00;100425.91;5007952;28;19969;-69
2021/08/22 06:37:09;;;;;;;;;;;19.90;99.90;;;18.52;100.00;100420.38;5008343;28;19981;-70
2021/08/22 06:39:40;;;;;;;;;;;19.90;99.90;;;18.57;100.00;100439.81;5005380;28;19936;-71
2021/08/22 06:42:07;;;;;;;;;;;20.00;99.90;;;18.58;100.00;100433.22;5007323;28;19933;-74
2021/08/22 06:44:39;;;;;;;;;;;20.00;99.80;;;18.59;100.00;100428.56;5007610;28;20478;-74
2021/08/22 06:47:07;;;;;;;;;;;20.00;99.90;;;18.54;100.00;100432.00;5007058;28;19936;-74
2021/08/22 06:49:35;;;;;;;;;;;20.00;99.80;;;18.55;100.00;100441.97;5007109;28;19936;-74
2021/08/22 06:52:02;;;;;;;;;;;20.00;99.90;;;18.55;100.00;100439.22;5007889;28;20012;-73
2021/08/22 06:54:29;;;;;;;;;;;19.90;99.90;;;18.52;100.00;100442.44;5006894;28;19925;-75
2021/08/22 06:56:56;;;;;;;;;;;19.90;99.90;;;18.50;100.00;100436.31;5007820;28;19976;-68
2021/08/22 06:59:23;;;;;;;;;;;20.00;99.80;;;18.54;100.00;100446.66;5007650;28;20430;-68
2021/08/22 07:01:52;;;;;;;;;;;20.00;99.70;;;18.56;100.00;100449.16;5007931;28;20088;-68
2021/08/22 07:04:19;;;;;;;;;;;20.00;99.60;;;18.57;100.00;100439.81;5007328;28;19960;-69
2021/08/22 07:06:46;;;;;;;;;;;20.10;99.50;;;18.62;100.00;100441.84;5007420;28;19933;-69
2021/08/22 07:09:13;;;;;;;;;;;20.10;99.10;;;18.62;100.00;100442.69;5007310;28;19983;-68
2021/08/22 07:11:40;;;;;;;;;;;20.30;98.80;;;18.66;100.00;100448.56;5007735;28;19929;-68
2021/08/22 07:14:07;;;;;;;;;;;20.40;98.20;;;18.70;100.00;100445.09;5007796;28;19956;-68
2021/08/22 07:16:34;;;;;;;;;;;20.60;97.10;;;18.62;100.00;100445.47;5007178;28;19936;-68
2021/08/22 07:19:03;;;;;;;;;;;20.70;96.40;;;18.68;100.00;100438.97;5006007;28;20419;-70
2021/08/22 07:21:30;;;;;;;;;;;20.70;96.30;;;18.72;100.00;100444.84;5005880;28;19961;-73
2021/08/22 07:23:57;;;;;;;;;;;20.70;96.30;;;18.72;100.00;100444.84;5004776;28;19961;-68
2021/08/22 07:26:24;;;;;;;;;;;20.70;96.30;;;18.75;100.00;100455.38;5006809;28;19976;-68
2021/08/22 07:28:51;;;;;;;;;;;20.80;95.30;;;18.81;100.00;100454.47;5005261;28;19961;-68
2021/08/22 07:31:19;;;;;;;;;;;20.90;95.80;;;18.84;100.00;100451.22;5006396;28;20393;-68
2021/08/22 07:33:47;;;;;;;;;;;20.90;95.40;;;18.85;100.00;100447.38;5007162;28;19933;-68
2021/08/22 07:36:16;;;;;;;;;;;20.90;94.70;;;18.87;100.00;100455.44;5006297;28;19969;-68
2021/08/22 07:38:43;;;;;;;;;;;20.90;95.50;;;18.93;100.00;100454.47;5006123;28;19960;-67
2021/08/22 07:41:10;;;;;;;;;;;20.90;95.40;;;18.96;100.00;100453.97;5006897;28;19957;-68
2021/08/22 07:43:37;;;;;;;;;;;20.90;95.20;;;19.00;100.00;100455.19;5007185;28;19987;-69
2021/08/22 07:46:04;;;;;;;;;;;20.90;94.90;;;19.03;100.00;100451.91;5006196;28;20020;-68
2021/08/22 07:48:31;;;;;;;;;;;21.10;95.30;;;19.05;100.00;100452.50;5007136;28;19929;-69
2021/08/22 07:50:58;;;;;;;;;;;21.20;94.30;;;19.11;100.00;100457.06;5006355;28;19930;-68
2021/08/22 07:53:27;;;;;;;;;;;21.40;93.80;;;19.14;100.00;100458.50;5007512;28;19955;-68
2021/08/22 07:55:54;;;;;;;;;;;21.60;92.90;;;19.20;100.00;100453.94;5006099;28;20024;-69
2021/08/22 07:58:21;;;;;;;;;;;21.70;93.00;;;19.18;100.00;100456.09;5007315;28;20020;-69
2021/08/22 08:00:48;;;;;;;;;;;21.70;92.20;;;19.25;100.00;100462.31;5008721;28;19929;-69
2021/08/22 08:03:15;;;;;;;;;;;21.80;91.90;;;19.25;100.00;100473.38;5009484;28;19952;-69
2021/08/22 08:05:42;;;;;;;;;;;21.70;91.50;;;19.26;100.00;100469.50;5009679;28;20033;-68
2021/08/22 08:08:10;;;;;;;;;;;21.60;92.10;;;19.30;100.00;100467.94;5010652;28;19936;-68
2021/08/22 08:10:38;;;;;;;;;;;21.60;92.10;;;19.29;100.00;100482.81;5010405;28;19983;-68
2021/08/22 08:13:05;;;;;;;;;;;21.50;91.80;;;19.31;99.97;100480.66;5009663;28;20020;-68
2021/08/22 08:15:32;;;;;;;;;;;21.50;92.30;;;19.33;100.00;100475.75;5008005;28;19933;-68
2021/08/22 08:17:59;;;;;;;;;;;21.60;92.40;;;19.36;100.00;100475.22;5009269;28;19935;-67
2021/08/22 08:20:26;;;;;;;;;;;21.60;91.80;;;19.40;99.93;100478.34;5010460;28;20008;-68
2021/08/22 08:22:53;;;;;;;;;;;21.60;91.60;;;19.43;99.68;100483.38;5009629;28;19943;-67
2021/08/22 08:25:21;;;;;;;;;;;21.70;91.40;;;19.44;98.10;100472.09;5009182;28;20316;-67
2021/08/22 08:27:49;;;;;;;;;;;21.80;90.50;;;19.48;99.15;100480.75;5009020;28;20032;-67
2021/08/22 08:30:16;;;;;;;;;;;21.90;90.90;;;19.48;98.37;100484.34;5010161;28;19925;-68
2021/08/22 08:32:44;;;;;;;;;;;21.90;90.30;;;19.49;97.89;100487.91;5009526;28;19953;-68
2021/08/22 08:35:12;;;;;;;;;;;21.90;90.30;;;19.50;98.79;100490.44;5009960;28;19933;-68
2021/08/22 08:37:39;;;;;;;;;;;21.80;91.00;;;19.50;98.18;100493.22;5009839;28;19933;-68
2021/08/22 08:40:07;;;;;;;;;;;21.70;91.20;;;19.49;98.67;100496.19;5009167;28;19929;-68
2021/08/22 08:42:34;;;;;;;;;;;21.60;91.60;;;19.49;99.25;100499.78;5009938;28;20002;-68
2021/08/22 08:45:03;;;;;;;;;;;21.60;92.00;;;19.52;99.25;100501.25;5009722;28;19929;-68
2021/08/22 08:47:30;;;;;;;;;;;21.70;92.00;;;19.52;99.67;100501.25;5009941;28;19929;-68
2021/08/22 08:50:02;;;;;;;;;;;21.70;92.30;;;19.56;100.00;100493.31;5010320;28;20418;-68
2021/08/22 08:52:33;;;;;;;;;;;21.80;92.10;;;19.61;100.00;100487.88;5009888;28;19965;-68
2021/08/22 08:55:02;;;;;;;;;;;22.00;91.60;;;19.63;99.65;100486.56;5009172;28;19930;-68
2021/08/22 08:57:30;;;;;;;;;;;22.10;90.70;;;19.64;99.61;100487.41;5009802;28;19929;-68
2021/08/22 08:59:57;;;;;;;;;;;22.10;90.70;;;19.64;99.11;100492.94;5010075;28;19933;-68
2021/08/22 09:02:26;;;;;;;;;;;22.00;90.50;;;19.63;99.00;100496.75;5008897;28;19929;-68
2021/08/22 09:04:55;;;;;;;;;;;21.90;91.00;;;19.62;99.34;100490.41;5008777;28;20007;-68
2021/08/22 09:08:03;;;;;;;;;;;21.80;91.30;;;19.60;98.39;100497.25;5009871;28;19930;-68
2021/08/22 09:11:15;;;;;;;;;;;21.70;91.20;;;19.60;98.59;100487.06;5009495;28;20348;-68
2021/08/22 09:14:19;;;;;;;;;;;21.70;91.80;;;19.67;99.16;100481.41;5009746;28;19933;-68
2021/08/22 09:17:25;;;;;;;;;;;21.80;91.50;;;19.69;98.89;100479.22;5009285;28;19930;-68
2021/08/22 09:20:28;;;;;;;;;;;21.90;91.20;;;19.70;98.38;100475.38;5007402;28;19929;-68
2021/08/22 09:23:47;;;;;;;;;;;21.90;90.60;;;19.74;98.60;100479.34;5009369;28;20389;-68
2021/08/22 09:27:05;;;;;;;;;;;21.90;90.90;;;19.76;97.41;100468.88;4947504;29;20434;-68
2021/08/22 09:30:17;;;;;;;;;;;22.10;90.30;;;19.88;98.94;100466.91;4948550;28;20743;-68
2021/08/22 09:33:18;;;;;;;;;;;22.30;90.60;;;19.99;100.00;100467.97;5008865;28;20715;-68
2021/08/22 09:36:24;;;;;;;;;;;22.50;90.20;;;20.07;99.17;100470.31;4965937;28;20360;-67
2021/08/22 09:39:30;;;;;;;;;;;22.50;90.00;;;20.13;98.82;100468.47;4991163;28;19936;-68
2021/08/22 09:42:24;;;;;;;;;;;22.60;89.80;;;20.15;97.68;100466.28;5009289;28;19951;-68
2021/08/22 09:45:24;;;;;;;;;;;22.70;89.20;;;20.14;97.21;100461.00;5008551;28;20396;-68
2021/08/22 09:48:35;;;;;;;;;;;22.70;88.90;;;20.12;96.57;100461.25;4990775;28;19991;-68
2021/08/22 09:51:36;;;;;;;;;;;22.60;88.40;;;20.07;95.53;100452.91;5009280;28;20101;-68
2021/08/22 09:54:56;;;;;;;;;;;22.50;88.20;;;20.09;99.04;100461.78;5008207;28;19929;-68
2021/08/22 09:58:16;;;;;;;;;;;22.50;89.40;;;20.13;96.07;100462.94;5008903;28;19930;-68
2021/08/22 10:01:24;;;;;;;;;;;22.60;88.20;;;20.13;96.83;100462.94;5008174;28;19930;-68
2021/08/22 10:04:17;;;;;;;;;;;22.70;88.60;;;20.13;97.13;100456.59;5008283;28;20007;-68
2021/08/22 10:07:08;;;;;;;;;;;22.70;88.60;;;20.22;98.41;100450.41;5006535;28;19925;-69
2021/08/22 10:09:40;;;;;;;;;;;22.80;89.10;;;20.25;96.91;100452.63;5008308;28;19929;-68
2021/08/22 10:12:07;;;;;;;;;;;22.80;88.00;;;20.30;96.16;100458.25;5008740;28;20463;-68
2021/08/22 10:14:38;;;;;;;;;;;22.90;87.70;;;20.27;95.33;100456.00;5007868;28;20447;-68
2021/08/22 10:17:06;;;;;;;;;;;22.80;87.30;;;20.29;95.72;100450.22;5008735;28;19981;-68
2021/08/22 10:19:35;;;;;;;;;;;22.80;87.40;;;20.31;96.11;100457.19;5008687;28;19929;-68
2021/08/22 10:22:13;;;;;;;;;;;22.80;87.80;;;20.33;93.23;100445.03;5008149;28;19930;-68
2021/08/22 10:24:54;;;;;;;;;;;22.90;87.20;;;20.30;90.40;100457.44;5007846;28;20017;-68
2021/08/22 10:27:46;;;;;;;;;;;22.80;84.10;;;20.30;89.53;100449.97;5008181;28;20397;-68
2021/08/22 10:30:16;;;;;;;;;;;22.90;84.50;;;20.34;88.09;100457.78;5007475;28;19983;-69
2021/08/22 10:33:19;;;;;;;;;;;22.90;82.80;;;20.38;87.86;100454.25;5008849;28;19929;-68
2021/08/22 10:35:47;;;;;;;;;;;22.90;83.30;;;20.41;88.25;100452.91;4981927;28;20003;-69
2021/08/22 10:38:29;;;;;;;;;;;22.90;83.40;;;20.43;88.74;100437.75;5008175;28;20440;-68
2021/08/22 10:40:59;;;;;;;;;;;23.00;82.80;;;20.43;88.20;100447.97;5007755;28;20359;-68
2021/08/22 10:43:45;;;;;;;;;;;22.90;83.60;;;20.46;88.49;100444.69;5008144;28;19929;-68
2021/08/22 10:46:16;;;;;;;;;;;23.00;83.10;;;20.48;87.85;100439.75;5008229;28;19929;-68
2021/08/22 10:49:01;;;;;;;;;;;23.00;83.30;;;20.49;86.60;100435.91;5007190;28;20735;-68
2021/08/22 10:51:29;;;;;;;;;;;23.00;81.70;;;20.59;84.79;100447.13;5008637;28;19925;-69
2021/08/22 10:54:15;;;;;;;;;;;23.10;81.60;;;20.60;83.99;100443.31;5005160;28;19930;-67
2021/08/22 10:56:43;;;;;;;;;;;23.10;80.60;;;20.67;85.08;100441.19;5008145;28;19975;-67
2021/08/22 10:59:10;;;;;;;;;;;23.30;80.80;;;20.76;84.30;100441.59;5006554;28;20032;-67
2021/08/22 11:01:41;;;;;;;;;;;23.40;80.00;;;20.80;86.11;100444.69;5006144;28;19936;-67
2021/08/22 11:04:10;;;;;;;;;;;23.50;80.20;;;20.93;86.40;100438.78;5007677;28;19933;-68
2021/08/22 11:06:52;;;;;;;;;;;23.60;80.80;;;20.97;87.28;100436.34;5005483;28;19951;-68
2021/08/22 11:09:34;;;;;;;;;;;23.70;81.20;;;20.99;86.71;100436.94;5007020;28;19999;-67
2021/08/22 11:12:01;;;;;;;;;;;23.70;79.80;;;21.01;82.60;100431.97;5007330;28;19925;-67
2021/08/22 11:14:28;;;;;;;;;;;23.70;78.30;;;21.00;82.56;100433.06;5007661;28;19933;-67
2021/08/22 11:16:58;;;;;;;;;;;23.60;78.60;;;20.98;80.01;100433.34;5006807;28;19926;-68
2021/08/22 11:19:25;;;;;;;;;;;23.60;77.50;;;21.02;82.80;100433.66;5007054;28;20380;-68
2021/08/22 11:21:54;;;;;;;;;;;23.70;78.40;;;21.02;78.45;100434.50;5003866;28;20336;-67
2021/08/22 11:24:21;;;;;;;;;;;23.60;76.70;;;20.99;77.84;100437.75;5004278;28;20301;-67